Memphis, Tennessee
Current Conditions -  °F | °C
As of 11:54 AM on Monday 22 Dec 2014 (Local Time) from KMEM Reporting Station
Overcast Overcast  
Wind Chill: 56°   Ceiling: 1000
Heat Index: 56°   Visibility: 10mi
Dew Point: 51°   Wind: 13mph
Humidity: 84%   Direction: 170°S
Pressure: 29.73"   Gusts: NA
Location:  35.15°N, 90.05°W
Report Text: KMEM 221754Z 17011KT 10SM OVC010 13/11 A2973 RMK AO2 SLP068 60000 T01330106 10133 20094 58026 $
Loading
Personal Weather Stations






























Interactive Weather Map New forecast layout! Learn more

10-Day Weather Forecast

Advertisements
Track Severe Weather on mobile